createdAt,value
2022-09-12T00:00:32.124Z,52.84
2022-09-12T00:03:01.560Z,53.12
2022-09-12T00:05:31.163Z,52.54
2022-09-12T00:07:59.281Z,52.77
2022-09-12T00:10:27.380Z,52.74
2022-09-12T00:12:55.459Z,52.48
2022-09-12T00:15:23.488Z,52.53
2022-09-12T00:17:51.559Z,52.77
2022-09-12T00:20:21.196Z,52.65
2022-09-12T00:22:49.278Z,52.55
2022-09-12T00:25:17.461Z,52.53
2022-09-12T00:27:45.580Z,52.28
2022-09-12T00:30:13.908Z,52.72
2022-09-12T00:32:41.991Z,52.40
2022-09-12T00:35:10.124Z,52.34
2022-09-12T00:37:39.614Z,52.17
2022-09-12T00:40:08.894Z,52.38
2022-09-12T00:42:37.073Z,52.27
2022-09-12T00:45:06.501Z,51.97
2022-09-12T00:47:34.569Z,52.19
2022-09-12T00:50:05.128Z,52.36
2022-09-12T00:52:35.324Z,52.35
2022-09-12T00:55:07.284Z,52.18
2022-09-12T00:57:37.108Z,52.27
2022-09-12T01:00:12.220Z,52.07
2022-09-12T01:02:40.324Z,51.87
2022-09-12T01:05:09.460Z,52.31
2022-09-12T01:07:40.003Z,51.89
2022-09-12T01:10:10.764Z,52.04
2022-09-12T01:12:40.196Z,51.87
2022-09-12T01:15:08.779Z,51.98
2022-09-12T01:17:43.749Z,52.04
2022-09-12T01:20:38.062Z,51.90
2022-09-12T01:23:35.000Z,51.86
2022-09-12T01:26:13.383Z,51.84
2022-09-12T01:28:53.389Z,52.22
2022-09-12T01:31:23.591Z,51.64
2022-09-12T01:33:59.865Z,51.69
2022-09-12T01:36:41.999Z,51.40
2022-09-12T01:39:15.441Z,51.60
2022-09-12T01:41:46.440Z,51.79
2022-09-12T01:44:17.823Z,51.54
2022-09-12T01:46:49.178Z,51.24
2022-09-12T01:49:19.188Z,51.65
2022-09-12T01:51:52.600Z,51.87
2022-09-12T01:54:22.239Z,51.42
2022-09-12T01:56:50.995Z,51.32
2022-09-12T01:59:20.257Z,51.53
2022-09-12T02:01:53.151Z,51.32
2022-09-12T02:04:22.195Z,51.53
2022-09-12T02:06:51.316Z,51.22
2022-09-12T02:09:20.840Z,51.25
2022-09-12T02:11:49.272Z,51.02
2022-09-12T02:14:19.255Z,51.05
2022-09-12T02:16:50.021Z,51.03
2022-09-12T02:19:19.818Z,50.92
2022-09-12T02:21:49.829Z,50.81
2022-09-12T02:24:17.884Z,51.17
2022-09-12T02:26:48.895Z,51.22
2022-09-12T02:29:17.015Z,51.11
2022-09-12T02:31:46.576Z,51.07
2022-09-12T02:34:23.642Z,51.01
2022-09-12T02:36:54.718Z,50.79
2022-09-12T02:39:22.857Z,50.86
2022-09-12T02:41:51.765Z,51.07
2022-09-12T02:44:20.031Z,50.72
2022-09-12T02:46:48.965Z,50.88
2022-09-12T02:49:18.532Z,50.48
2022-09-12T02:51:46.744Z,50.90
2022-09-12T02:54:15.027Z,50.86
2022-09-12T02:56:43.812Z,50.46
2022-09-12T02:59:14.028Z,50.36
2022-09-12T03:01:50.727Z,50.40
2022-09-12T03:04:29.005Z,50.50
2022-09-12T03:07:03.017Z,50.28
2022-09-12T03:09:34.427Z,50.70
2022-09-12T03:12:12.951Z,50.66
2022-09-12T03:15:02.083Z,50.37
2022-09-12T03:17:34.036Z,50.83
2022-09-12T03:20:05.512Z,50.64
2022-09-12T03:22:35.481Z,50.58
2022-09-12T03:25:07.144Z,50.20
2022-09-12T03:27:36.592Z,50.31
2022-09-12T03:30:05.355Z,50.13
2022-09-12T03:32:43.992Z,50.09
2022-09-12T03:35:13.668Z,50.27
2022-09-12T03:37:41.852Z,50.44
2022-09-12T03:40:11.819Z,50.53
2022-09-12T03:42:40.101Z,49.93
2022-09-12T03:45:09.383Z,50.08
2022-09-12T03:47:37.569Z,50.20
2022-09-12T03:50:06.616Z,50.23
2022-09-12T03:52:36.250Z,50.08
2022-09-12T03:55:04.752Z,49.92
2022-09-12T03:57:32.926Z,49.80
2022-09-12T04:00:02.114Z,49.91
2022-09-12T04:02:41.005Z,49.89
2022-09-12T04:05:09.753Z,49.72
2022-09-12T04:07:39.285Z,49.66
2022-09-12T04:10:09.606Z,49.93
2022-09-12T04:12:39.566Z,49.72
2022-09-12T04:15:08.934Z,49.69
2022-09-12T04:17:36.995Z,50.16
2022-09-12T04:20:05.716Z,49.77
2022-09-12T04:22:33.800Z,49.84
2022-09-12T04:25:03.347Z,49.95
2022-09-12T04:27:31.415Z,49.79
2022-09-12T04:29:59.617Z,49.59
2022-09-12T04:32:27.667Z,49.97
2022-09-12T04:34:55.763Z,49.50
2022-09-12T04:37:24.532Z,49.42
2022-09-12T04:39:56.107Z,49.75
2022-09-12T04:42:25.699Z,49.65
2022-09-12T04:44:53.780Z,49.31
2022-09-12T04:47:21.852Z,49.97
2022-09-12T04:49:51.179Z,49.54
2022-09-12T04:52:19.229Z,49.91
2022-09-12T04:54:47.329Z,49.71
2022-09-12T04:57:15.367Z,49.43
2022-09-12T04:59:44.884Z,49.68
2022-09-12T05:02:12.991Z,49.31
2022-09-12T05:04:41.062Z,49.52
2022-09-12T05:07:09.136Z,49.26
2022-09-12T05:09:37.245Z,48.98
2022-09-12T05:12:06.094Z,49.17
2022-09-12T05:14:34.408Z,49.70
2022-09-12T05:17:04.086Z,49.47
2022-09-12T05:19:32.407Z,49.60
2022-09-12T05:22:00.700Z,49.44
2022-09-12T05:24:28.901Z,49.23
2022-09-12T05:26:56.985Z,49.27
2022-09-12T05:29:25.704Z,49.19
2022-09-12T05:31:53.861Z,49.11
2022-09-12T05:34:23.418Z,49.39
2022-09-12T05:36:51.509Z,49.35
2022-09-12T05:39:19.748Z,49.74
2022-09-12T05:41:47.891Z,49.56
2022-09-12T05:44:16.129Z,50.10
2022-09-12T05:46:45.188Z,50.09
2022-09-12T05:49:14.616Z,49.97
2022-09-12T05:51:45.470Z,50.38
2022-09-12T05:54:15.036Z,48.71
2022-09-12T05:56:44.069Z,48.05
2022-09-12T05:59:13.475Z,48.65
2022-09-12T06:01:41.837Z,49.19
2022-09-12T06:04:12.648Z,49.49
2022-09-12T06:06:43.491Z,49.63
2022-09-12T06:09:13.093Z,49.85
2022-09-12T06:11:41.928Z,49.64
2022-09-12T06:14:13.536Z,48.38
2022-09-12T06:16:41.810Z,48.31
2022-09-12T06:19:14.458Z,48.04
2022-09-12T06:21:42.552Z,47.92
2022-09-12T06:24:12.219Z,48.52
2022-09-12T06:26:40.275Z,47.76
2022-09-12T06:29:08.634Z,47.99
2022-09-12T06:31:37.352Z,48.11
2022-09-12T06:34:06.512Z,48.06
2022-09-12T06:36:36.296Z,47.96
2022-09-12T06:39:05.531Z,47.59
2022-09-12T06:41:35.055Z,48.14
2022-09-12T06:44:03.596Z,47.93
2022-09-12T06:46:32.196Z,47.86
2022-09-12T06:49:00.827Z,48.33
2022-09-12T06:51:29.131Z,48.50
2022-09-12T06:53:57.474Z,48.49
2022-09-12T06:56:26.583Z,47.99
2022-09-12T06:58:57.164Z,48.40
2022-09-12T07:01:26.256Z,48.49
2022-09-12T07:03:55.876Z,48.32
2022-09-12T07:06:26.216Z,48.80
2022-09-12T07:08:54.263Z,48.49
2022-09-12T07:11:23.419Z,48.52
2022-09-12T07:13:54.118Z,49.05
2022-09-12T07:16:23.895Z,49.10
2022-09-12T07:18:52.478Z,49.22
2022-09-12T07:21:20.602Z,48.46
2022-09-12T07:23:49.213Z,48.81
2022-09-12T07:26:17.467Z,48.63
2022-09-12T07:28:45.769Z,48.50
2022-09-12T07:31:15.037Z,48.63
2022-09-12T07:33:44.828Z,48.42
2022-09-12T07:36:13.765Z,48.74
2022-09-12T07:38:41.948Z,48.59
2022-09-12T07:41:13.676Z,48.45
2022-09-12T07:43:51.244Z,48.85
2022-09-12T07:46:19.713Z,48.80
2022-09-12T07:48:52.451Z,48.36
2022-09-12T07:51:20.538Z,48.66
2022-09-12T07:53:49.027Z,48.68
2022-09-12T07:56:17.635Z,48.41
2022-09-12T07:58:45.740Z,48.26
2022-09-12T08:01:14.861Z,48.32
2022-09-12T08:03:43.117Z,48.46
2022-09-12T08:06:14.081Z,48.66
2022-09-12T08:08:42.184Z,48.08
2022-09-12T08:11:11.202Z,48.25
2022-09-12T08:13:39.716Z,48.15
2022-09-12T08:16:08.690Z,48.05
2022-09-12T08:18:37.141Z,48.25
2022-09-12T08:21:07.344Z,48.30
2022-09-12T08:23:36.839Z,48.44
2022-09-12T08:26:06.591Z,48.58
2022-09-12T08:28:35.428Z,48.49
2022-09-12T08:31:03.693Z,48.14
2022-09-12T08:33:33.563Z,48.29
2022-09-12T08:36:06.276Z,48.39
2022-09-12T08:38:34.459Z,48.51
2022-09-12T08:41:06.996Z,48.59
2022-09-12T08:43:46.937Z,48.95
2022-09-12T08:46:17.624Z,48.64
2022-09-12T08:48:46.113Z,48.76
2022-09-12T08:51:15.144Z,49.35
2022-09-12T08:53:43.208Z,48.82
2022-09-12T08:56:12.706Z,48.91
2022-09-12T08:58:41.940Z,49.09
2022-09-12T09:01:11.891Z,49.10
2022-09-12T09:04:08.932Z,49.02
2022-09-12T09:06:46.048Z,49.33
2022-09-12T09:09:16.548Z,49.18
2022-09-12T09:11:54.596Z,49.60
2022-09-12T09:14:51.494Z,49.79
2022-09-12T09:17:21.872Z,49.43
2022-09-12T09:19:52.088Z,50.25
2022-09-12T09:22:24.818Z,50.05
2022-09-12T09:24:54.801Z,50.56
2022-09-12T09:27:40.431Z,50.51
2022-09-12T09:30:14.104Z,50.42
2022-09-12T09:32:42.164Z,50.73
2022-09-12T09:35:15.841Z,50.84
2022-09-12T09:37:44.522Z,51.07
2022-09-12T09:40:19.079Z,51.04
2022-09-12T09:42:54.229Z,51.12
2022-09-12T09:45:24.194Z,51.75
2022-09-12T09:47:52.853Z,51.45
2022-09-12T09:50:20.959Z,51.21
2022-09-12T09:52:50.556Z,50.97
2022-09-12T09:55:20.855Z,51.25
2022-09-12T09:57:52.321Z,51.24
2022-09-12T10:00:32.030Z,51.07
2022-09-12T10:03:05.398Z,51.57
2022-09-12T10:05:34.803Z,51.66
2022-09-12T10:08:03.301Z,51.49
2022-09-12T10:10:31.384Z,51.78
2022-09-12T10:13:10.218Z,51.54
2022-09-12T10:15:38.729Z,51.49
2022-09-12T10:18:07.027Z,51.26
2022-09-12T10:20:36.303Z,51.72
2022-09-12T10:23:09.487Z,51.02
2022-09-12T10:25:37.961Z,50.97
2022-09-12T10:28:05.996Z,51.08
2022-09-12T10:30:35.512Z,51.35
2022-09-12T10:33:07.389Z,51.32
2022-09-12T10:35:44.853Z,51.07
2022-09-12T10:38:15.281Z,51.06
2022-09-12T10:40:44.932Z,50.73
2022-09-12T10:43:17.986Z,50.50
2022-09-12T10:45:47.590Z,50.59
2022-09-12T10:48:28.681Z,50.49
2022-09-12T10:50:56.993Z,51.26
2022-09-12T10:53:28.906Z,50.80
2022-09-12T10:56:07.808Z,50.55
2022-09-12T10:58:57.708Z,50.83
2022-09-12T11:01:40.386Z,50.68
2022-09-12T11:04:25.592Z,50.84
2022-09-12T11:07:00.201Z,51.00
2022-09-12T11:09:30.269Z,50.82
2022-09-12T11:12:03.456Z,50.99
2022-09-12T11:14:57.774Z,50.74
2022-09-12T11:17:33.020Z,51.20
2022-09-12T11:20:12.045Z,51.05
2022-09-12T11:23:00.024Z,50.89
2022-09-12T11:25:31.063Z,50.78
2022-09-12T11:28:16.079Z,51.29
2022-09-12T11:30:50.757Z,51.08
2022-09-12T11:33:30.154Z,51.12
2022-09-12T11:35:58.885Z,51.50
2022-09-12T11:38:53.435Z,51.22
2022-09-12T11:41:24.743Z,51.43
2022-09-12T11:43:55.776Z,51.66
2022-09-12T11:46:24.945Z,51.51
2022-09-12T11:48:56.481Z,51.65
2022-09-12T11:51:26.861Z,51.60
2022-09-12T11:54:05.192Z,51.78
2022-09-12T11:56:33.298Z,51.86
2022-09-12T11:59:04.222Z,51.69
2022-09-12T12:01:40.499Z,51.83
2022-09-12T12:04:13.938Z,52.05
2022-09-12T12:06:49.080Z,51.63
2022-09-12T12:09:17.769Z,51.87
2022-09-12T12:11:48.742Z,52.07
2022-09-12T12:14:18.394Z,52.21
2022-09-12T12:16:46.521Z,52.03
2022-09-12T12:19:32.826Z,52.14
2022-09-12T12:22:09.927Z,51.81
2022-09-12T12:24:54.467Z,52.13
2022-09-12T12:27:26.436Z,52.15
2022-09-12T12:29:54.611Z,52.41
2022-09-12T12:32:23.877Z,52.39
2022-09-12T12:35:02.268Z,52.10
2022-09-12T12:38:00.309Z,52.09
2022-09-12T12:40:29.500Z,52.37
2022-09-12T12:43:05.521Z,52.49
2022-09-12T12:46:10.380Z,52.56
2022-09-12T12:49:11.189Z,52.83
2022-09-12T12:51:56.629Z,52.27
2022-09-12T12:54:32.917Z,52.87
2022-09-12T12:57:05.522Z,52.69
2022-09-12T12:59:33.636Z,53.06
2022-09-12T13:02:01.854Z,52.88
2022-09-12T13:04:31.185Z,52.94
2022-09-12T13:07:07.701Z,52.90
2022-09-12T13:09:39.538Z,53.14
2022-09-12T13:12:09.224Z,53.10
2022-09-12T13:14:52.919Z,53.11
2022-09-12T13:17:29.345Z,52.90
2022-09-12T13:20:26.690Z,53.29
2022-09-12T13:22:55.950Z,53.25
2022-09-12T13:25:27.179Z,52.95
2022-09-12T13:28:16.564Z,53.21
2022-09-12T13:30:45.684Z,53.43
2022-09-12T13:33:19.884Z,53.50
2022-09-12T13:35:55.899Z,53.22
2022-09-12T13:38:27.831Z,53.36
2022-09-12T13:41:04.212Z,52.90
2022-09-12T13:43:38.115Z,52.98
2022-09-12T13:46:06.271Z,53.01
2022-09-12T13:48:34.521Z,52.78
2022-09-12T13:51:03.069Z,53.15
2022-09-12T13:53:36.008Z,53.24
2022-09-12T13:56:04.905Z,52.89
2022-09-12T13:58:33.725Z,52.69
2022-09-12T14:01:03.299Z,52.86
2022-09-12T14:03:50.087Z,52.86
2022-09-12T14:06:19.006Z,53.10
2022-09-12T14:08:48.764Z,52.69
2022-09-12T14:11:26.004Z,52.75
2022-09-12T14:13:55.232Z,52.68
2022-09-12T14:16:23.498Z,52.61
2022-09-12T14:18:52.567Z,52.55
2022-09-12T14:21:31.213Z,52.13
2022-09-12T14:24:00.839Z,52.15
2022-09-12T14:26:32.461Z,51.95
2022-09-12T14:29:00.627Z,52.56
2022-09-12T14:31:31.088Z,52.16
2022-09-12T14:34:10.060Z,51.89
2022-09-12T14:36:41.044Z,51.93
2022-09-12T14:39:18.315Z,51.99
2022-09-12T14:41:47.047Z,51.69
2022-09-12T14:44:19.286Z,51.73
2022-09-12T14:46:47.360Z,51.60
2022-09-12T14:49:17.693Z,51.70
2022-09-12T14:51:51.440Z,51.87
2022-09-12T14:54:42.592Z,51.48
2022-09-12T14:57:34.297Z,51.83
2022-09-12T15:00:20.274Z,51.51
2022-09-12T15:02:48.552Z,51.45
2022-09-12T15:05:18.969Z,51.35
2022-09-12T15:07:55.808Z,51.35
2022-09-12T15:10:27.700Z,51.29
2022-09-12T15:13:10.897Z,51.11
2022-09-12T15:15:39.933Z,51.42
2022-09-12T15:18:08.276Z,51.22
2022-09-12T15:20:37.370Z,51.21
2022-09-12T15:23:06.069Z,50.78
2022-09-12T15:25:35.476Z,51.00
2022-09-12T15:28:06.607Z,51.24
2022-09-12T15:30:34.779Z,51.00
2022-09-12T15:33:02.852Z,51.09
2022-09-12T15:35:30.913Z,50.79
2022-09-12T15:37:58.992Z,51.06
2022-09-12T15:40:27.085Z,51.16
2022-09-12T15:42:56.582Z,50.73
2022-09-12T15:45:27.367Z,50.88
2022-09-12T15:47:55.515Z,50.82
2022-09-12T15:50:23.595Z,50.91
2022-09-12T15:52:51.724Z,50.83
2022-09-12T15:55:20.936Z,50.73
2022-09-12T15:57:49.077Z,50.95
2022-09-12T16:00:19.062Z,50.89
2022-09-12T16:02:48.970Z,50.93
2022-09-12T16:05:18.172Z,50.78
2022-09-12T16:07:46.251Z,50.73
2022-09-12T16:10:17.592Z,51.14
2022-09-12T16:12:46.173Z,50.96
2022-09-12T16:15:15.169Z,50.68
2022-09-12T16:17:44.667Z,51.23
2022-09-12T16:20:12.804Z,51.06
2022-09-12T16:22:40.885Z,50.68
2022-09-12T16:25:09.565Z,51.22
2022-09-12T16:27:37.864Z,51.28
2022-09-12T16:30:06.942Z,51.22
2022-09-12T16:32:35.272Z,51.03
2022-09-12T16:35:05.151Z,51.26
2022-09-12T16:37:34.563Z,51.15
2022-09-12T16:40:02.824Z,51.14
2022-09-12T16:42:31.117Z,51.36
2022-09-12T16:44:59.139Z,51.21
2022-09-12T16:47:27.309Z,51.20
2022-09-12T16:49:55.343Z,51.12
2022-09-12T16:52:24.827Z,51.20
2022-09-12T16:54:52.870Z,51.47
2022-09-12T16:57:21.060Z,51.40
2022-09-12T16:59:49.099Z,51.13
2022-09-12T17:02:17.293Z,51.34
2022-09-12T17:04:45.384Z,51.32
2022-09-12T17:07:13.551Z,51.62
2022-09-12T17:09:46.252Z,51.29
2022-09-12T17:12:16.056Z,51.31
2022-09-12T17:14:44.239Z,51.51
2022-09-12T17:17:12.311Z,51.72
2022-09-12T17:19:40.403Z,51.77
2022-09-12T17:22:08.467Z,51.54
2022-09-12T17:24:36.548Z,51.50
2022-09-12T17:27:06.385Z,51.84
2022-09-12T17:29:35.876Z,51.56
2022-09-12T17:32:04.155Z,51.89
2022-09-12T17:34:32.307Z,51.80
2022-09-12T17:37:00.365Z,51.86
2022-09-12T17:39:28.530Z,52.03
2022-09-12T17:41:57.813Z,51.79
2022-09-12T17:44:27.324Z,51.97
2022-09-12T17:46:55.399Z,51.89
2022-09-12T17:49:23.482Z,51.95
2022-09-12T17:51:52.184Z,52.09
2022-09-12T17:54:20.907Z,51.92
2022-09-12T17:56:51.315Z,51.98
2022-09-12T17:59:20.781Z,52.29
2022-09-12T18:02:08.013Z,52.15
2022-09-12T18:04:36.444Z,51.97
2022-09-12T18:07:05.080Z,52.18
2022-09-12T18:09:33.189Z,52.41
2022-09-12T18:12:01.344Z,52.61
2022-09-12T18:14:29.412Z,52.58
2022-09-12T18:17:00.245Z,52.63
2022-09-12T18:19:28.543Z,52.54
2022-09-12T18:21:56.592Z,52.59
2022-09-12T18:24:24.852Z,52.59
2022-09-12T18:26:52.984Z,52.24
2022-09-12T18:29:21.061Z,52.39
2022-09-12T18:31:49.163Z,52.57
2022-09-12T18:34:18.883Z,52.89
2022-09-12T18:36:47.564Z,52.87
2022-09-12T18:39:15.670Z,52.62
2022-09-12T18:41:43.898Z,52.95
2022-09-12T18:44:12.813Z,52.71
2022-09-12T18:46:40.921Z,52.39
2022-09-12T18:49:09.523Z,52.99
2022-09-12T18:51:41.729Z,52.99
2022-09-12T18:54:13.062Z,53.23
2022-09-12T18:56:43.580Z,53.00
2022-09-12T18:59:12.906Z,53.00
2022-09-12T19:01:41.165Z,52.94
2022-09-12T19:04:09.904Z,53.20
2022-09-12T19:06:40.291Z,53.27
2022-09-12T19:09:09.120Z,53.12
2022-09-12T19:11:38.197Z,52.95
2022-09-12T19:14:06.509Z,53.16
2022-09-12T19:16:34.800Z,53.14
2022-09-12T19:19:03.182Z,53.23
2022-09-12T19:21:34.422Z,53.21
2022-09-12T19:24:05.346Z,53.58
2022-09-12T19:26:33.504Z,53.27
2022-09-12T19:29:03.026Z,53.27
2022-09-12T19:31:31.329Z,53.30
2022-09-12T19:34:00.999Z,53.51
2022-09-12T19:36:46.367Z,53.25
2022-09-12T19:39:17.219Z,53.33
2022-09-12T19:41:45.480Z,53.58
2022-09-12T19:44:13.576Z,53.21
2022-09-12T19:46:41.806Z,53.35
2022-09-12T19:49:11.328Z,53.71
2022-09-12T19:51:39.400Z,53.69
2022-09-12T19:54:07.898Z,53.56
2022-09-12T19:56:37.436Z,53.75
2022-09-12T19:59:05.563Z,53.53
2022-09-12T20:01:34.797Z,53.81
2022-09-12T20:04:03.451Z,53.65
2022-09-12T20:06:31.519Z,53.45
2022-09-12T20:09:00.011Z,53.61
2022-09-12T20:11:28.075Z,53.47
2022-09-12T20:13:57.513Z,53.59
2022-09-12T20:16:28.502Z,53.52
2022-09-12T20:18:57.452Z,53.54
2022-09-12T20:21:31.271Z,53.25
2022-09-12T20:24:03.383Z,53.16
2022-09-12T20:26:31.657Z,53.72
2022-09-12T20:29:01.339Z,53.44
2022-09-12T20:31:30.335Z,53.41
2022-09-12T20:33:58.593Z,53.22
2022-09-12T20:36:26.857Z,53.67
2022-09-12T20:38:56.770Z,53.45
2022-09-12T20:41:25.227Z,53.24
2022-09-12T20:43:53.412Z,53.48
2022-09-12T20:46:23.058Z,53.58
2022-09-12T20:48:51.297Z,53.47
2022-09-12T20:51:19.472Z,53.15
2022-09-12T20:53:47.578Z,53.06
2022-09-12T20:56:15.709Z,53.27
2022-09-12T20:58:44.751Z,53.26
2022-09-12T21:01:13.229Z,53.40
2022-09-12T21:03:43.118Z,53.08
2022-09-12T21:06:12.570Z,53.21
2022-09-12T21:08:40.652Z,53.54
2022-09-12T21:11:08.796Z,53.25
2022-09-12T21:13:36.882Z,53.21
2022-09-12T21:16:06.010Z,53.27
2022-09-12T21:18:34.388Z,53.10
2022-09-12T21:21:04.083Z,53.42
2022-09-12T21:23:32.220Z,53.22
2022-09-12T21:26:00.440Z,53.17
2022-09-12T21:28:28.548Z,52.86
2022-09-12T21:30:56.665Z,52.77
2022-09-12T21:33:24.991Z,52.96
2022-09-12T21:35:53.028Z,53.36
2022-09-12T21:38:22.501Z,53.13
2022-09-12T21:40:50.571Z,52.95
2022-09-12T21:43:18.649Z,53.02
2022-09-12T21:45:46.711Z,52.99
2022-09-12T21:48:14.807Z,52.96
2022-09-12T21:50:42.863Z,52.70
2022-09-12T21:53:10.940Z,52.94
2022-09-12T21:55:40.371Z,52.67
2022-09-12T21:58:08.452Z,52.67
2022-09-12T22:00:36.493Z,52.81
2022-09-12T22:03:04.923Z,52.69
2022-09-12T22:05:33.651Z,52.83
2022-09-12T22:08:02.009Z,52.69
2022-09-12T22:10:30.071Z,52.73
2022-09-12T22:12:59.527Z,52.66
2022-09-12T22:15:42.806Z,52.87
2022-09-12T22:18:11.541Z,53.03
2022-09-12T22:20:39.601Z,52.65
2022-09-12T22:23:25.361Z,53.01
2022-09-12T22:25:55.059Z,53.03
2022-09-12T22:28:25.240Z,52.76
2022-09-12T22:30:54.769Z,52.43
2022-09-12T22:33:23.056Z,52.77
2022-09-12T22:35:51.135Z,52.56
2022-09-12T22:38:19.157Z,52.91
2022-09-12T22:40:47.232Z,52.38
2022-09-12T22:43:15.504Z,52.39
2022-09-12T22:45:45.025Z,52.89
2022-09-12T22:48:13.050Z,52.73
2022-09-12T22:50:41.228Z,52.42
2022-09-12T22:53:09.248Z,52.67
2022-09-12T22:55:37.396Z,52.35
2022-09-12T22:58:05.413Z,52.33
2022-09-12T23:00:33.714Z,52.52
2022-09-12T23:03:03.237Z,52.13
2022-09-12T23:05:31.561Z,52.06
2022-09-12T23:07:59.589Z,52.16
2022-09-12T23:10:27.681Z,52.45
2022-09-12T23:12:56.031Z,52.37
2022-09-12T23:15:24.174Z,52.28
2022-09-12T23:17:52.195Z,52.26
2022-09-12T23:20:21.716Z,52.50
2022-09-12T23:22:49.937Z,52.25
2022-09-12T23:25:18.236Z,52.09
2022-09-12T23:27:48.302Z,52.34
2022-09-12T23:30:20.180Z,52.28
2022-09-12T23:32:49.492Z,52.57
2022-09-12T23:35:19.737Z,52.07
2022-09-12T23:37:49.224Z,52.58
2022-09-12T23:40:17.845Z,52.10
2022-09-12T23:42:45.928Z,52.40
2022-09-12T23:45:13.980Z,52.00
2022-09-12T23:47:42.049Z,52.55
2022-09-12T23:50:10.391Z,52.08
2022-09-12T23:52:38.475Z,51.86
2022-09-12T23:55:09.050Z,51.98
2022-09-12T23:57:37.127Z,51.64
